Goodell, Iowa
Current Conditions -  °F | °C
As of 8:55 PM on Sunday 23 Nov 2014 (Local Time) from KCAV Reporting Station
Overcast Overcast  
Wind Chill: 27°   Ceiling: 2100
Heat Index: 37°   Visibility: 10mi
Dew Point: 36°   Wind: 20mph
Humidity: 93%   Direction: 330°NNW
Pressure: 29.38"   Gusts: 30mph
Location:  42.92°N, 93.62°W
Report Text: KCAV 240255Z AUTO 33017G26KT 10SM BKN021 OVC027 03/02 A2938 RMK AO2 P0001
Loading
Personal Weather Stations






























Interactive Weather Map New forecast layout! Learn more

10-Day Weather Forecast

Advertisements
Track Severe Weather on mobile